createdAt,value
2019-03-08T00:00:02.940Z,4.7
2019-03-08T00:01:02.874Z,4.8
2019-03-08T00:02:03.602Z,4.8
2019-03-08T00:03:03.103Z,4.8
2019-03-08T00:04:03.362Z,4.8
2019-03-08T00:05:03.649Z,4.8
2019-03-08T00:06:03.509Z,4.8
2019-03-08T00:07:03.553Z,4.9
2019-03-08T00:08:03.267Z,4.9
2019-03-08T00:09:03.381Z,4.9
2019-03-08T00:10:03.415Z,4.9
2019-03-08T00:11:03.172Z,4.9
2019-03-08T00:12:02.925Z,4.9
2019-03-08T00:13:05.806Z,4.8
2019-03-08T00:14:03.438Z,4.4
2019-03-08T00:15:03.161Z,4.1
2019-03-08T00:16:03.385Z,4.1
2019-03-08T00:17:03.287Z,4
2019-03-08T00:18:03.434Z,4.1
2019-03-08T00:19:02.986Z,4.2
2019-03-08T00:20:03.013Z,4.3
2019-03-08T00:21:03.145Z,4.4
2019-03-08T00:22:03.066Z,4.4
2019-03-08T00:23:03.104Z,4.5
2019-03-08T00:24:03.328Z,4.6
2019-03-08T00:25:03.149Z,4.6
2019-03-08T00:26:04.544Z,4.6
2019-03-08T00:27:03.355Z,4.7
2019-03-08T00:28:02.979Z,4.7
2019-03-08T00:29:03.640Z,4.8
2019-03-08T00:30:03.313Z,4.8
2019-03-08T00:31:02.824Z,4.9
2019-03-08T00:32:02.926Z,4.9
2019-03-08T00:33:03.053Z,4.9
2019-03-08T00:34:03.331Z,4.9
2019-03-08T00:35:03.456Z,4.9
2019-03-08T00:36:02.553Z,4.9
2019-03-08T00:37:03.014Z,4.9
2019-03-08T00:38:03.101Z,4.9
2019-03-08T00:39:02.764Z,4.9
2019-03-08T00:40:03.232Z,4.9
2019-03-08T00:41:02.942Z,4.9
2019-03-08T00:42:02.859Z,4.9
2019-03-08T00:43:02.904Z,4.9
2019-03-08T00:44:02.816Z,4.9
2019-03-08T00:45:03.046Z,5
2019-03-08T00:46:02.964Z,4.9
2019-03-08T00:47:02.898Z,4.9
2019-03-08T00:48:02.818Z,5
2019-03-08T00:49:02.991Z,4.9
2019-03-08T00:50:02.718Z,4.9
2019-03-08T00:51:03.375Z,4.9
2019-03-08T00:52:03.206Z,4.9
2019-03-08T00:53:03.014Z,4.9
2019-03-08T00:54:02.889Z,4.9
2019-03-08T00:55:03.785Z,4.9
2019-03-08T00:56:04.066Z,4.9
2019-03-08T00:57:02.775Z,4.9
2019-03-08T00:58:03.269Z,4.9
2019-03-08T00:59:03.830Z,4.8
2019-03-08T01:00:03.754Z,4.8
2019-03-08T01:01:03.721Z,4.8
2019-03-08T01:02:02.756Z,4.8
2019-03-08T01:03:03.026Z,4.7
2019-03-08T01:04:03.022Z,4.7
2019-03-08T01:05:02.926Z,4.7
2019-03-08T01:06:03.737Z,4.6
2019-03-08T01:07:02.793Z,4.6
2019-03-08T01:08:03.596Z,4.5
2019-03-08T01:09:03.282Z,4.5
2019-03-08T01:10:03.608Z,4.4
2019-03-08T01:11:02.987Z,4.4
2019-03-08T01:12:02.797Z,4.4
2019-03-08T01:13:02.941Z,4.5
2019-03-08T01:14:03.555Z,4.4
2019-03-08T01:15:03.478Z,4.5
2019-03-08T01:16:02.949Z,4.5
2019-03-08T01:17:03.395Z,4.6
2019-03-08T01:18:03.370Z,4.5
2019-03-08T01:19:03.273Z,4.5
2019-03-08T01:20:03.684Z,4.6
2019-03-08T01:21:03.468Z,4.6
2019-03-08T01:22:03.739Z,4.6
2019-03-08T01:23:03.615Z,4.7
2019-03-08T01:24:03.513Z,4.8
2019-03-08T01:25:03.510Z,4.8
2019-03-08T01:26:02.971Z,4.8
2019-03-08T01:27:02.860Z,4.8
2019-03-08T01:28:03.554Z,4.9
2019-03-08T01:29:03.257Z,4.9
2019-03-08T01:30:03.362Z,4.9
2019-03-08T01:31:03.326Z,4.9
2019-03-08T01:32:05.664Z,4.9
2019-03-08T01:33:03.874Z,5
2019-03-08T01:34:03.373Z,5
2019-03-08T01:35:02.951Z,5
2019-03-08T01:36:03.360Z,5
2019-03-08T01:37:03.503Z,5
2019-03-08T01:38:03.441Z,5.1
2019-03-08T01:39:03.409Z,5.1
2019-03-08T01:40:03.194Z,5.1
2019-03-08T01:41:03.309Z,5.1
2019-03-08T01:42:03.502Z,5.1
2019-03-08T01:43:03.148Z,5.1
2019-03-08T01:44:03.329Z,5.2
2019-03-08T01:45:03.980Z,5.2
2019-03-08T01:46:03.428Z,5.2
2019-03-08T01:47:03.054Z,5.2
2019-03-08T01:48:03.235Z,5.2
2019-03-08T01:49:03.671Z,5.2
2019-03-08T01:50:03.727Z,5.2
2019-03-08T01:51:03.051Z,5.2
2019-03-08T01:52:02.830Z,5.2
2019-03-08T01:53:02.807Z,5.2
2019-03-08T01:54:02.968Z,5.2
2019-03-08T01:55:03.128Z,5.2
2019-03-08T01:56:03.464Z,5.3
2019-03-08T01:57:03.029Z,5.3
2019-03-08T01:58:03.803Z,5.2
2019-03-08T01:59:03.489Z,5.3
2019-03-08T02:00:03.626Z,5.3
2019-03-08T02:01:03.358Z,5.3
2019-03-08T02:02:02.347Z,5.2
2019-03-08T02:03:03.789Z,5.2
2019-03-08T02:04:02.770Z,5.1
2019-03-08T02:05:03.873Z,5.1
2019-03-08T02:06:03.647Z,5.1
2019-03-08T02:07:03.245Z,5.1
2019-03-08T02:08:03.294Z,5
2019-03-08T02:09:03.555Z,4.9
2019-03-08T02:10:03.011Z,4.8
2019-03-08T02:11:03.387Z,4.6
2019-03-08T02:12:03.135Z,4.6
2019-03-08T02:13:03.875Z,4.6
2019-03-08T02:14:03.185Z,4.6
2019-03-08T02:15:03.138Z,4.6
2019-03-08T02:16:02.885Z,4.6
2019-03-08T02:17:03.585Z,4.6
2019-03-08T02:18:03.737Z,4.8
2019-03-08T02:19:02.866Z,4.7
2019-03-08T02:20:02.891Z,4.8
2019-03-08T02:21:08.333Z,4.8
2019-03-08T02:22:02.996Z,4.8
2019-03-08T02:23:03.009Z,4.8
2019-03-08T02:24:02.797Z,4.9
2019-03-08T02:25:02.745Z,4.9
2019-03-08T02:26:02.899Z,4.9
2019-03-08T02:27:03.771Z,5
2019-03-08T02:28:02.897Z,5.1
2019-03-08T02:29:03.465Z,5.1
2019-03-08T02:30:02.763Z,5.1
2019-03-08T02:31:03.393Z,5.1
2019-03-08T02:32:02.824Z,5.1
2019-03-08T02:33:03.682Z,5.2
2019-03-08T02:34:02.975Z,5.2
2019-03-08T02:35:03.041Z,5.2
2019-03-08T02:36:03.116Z,5.3
2019-03-08T02:37:04.069Z,5.3
2019-03-08T02:38:03.562Z,5.3
2019-03-08T02:39:03.199Z,5.2
2019-03-08T02:40:03.657Z,5.2
2019-03-08T02:41:02.841Z,5.1
2019-03-08T02:42:03.338Z,5
2019-03-08T02:43:03.544Z,4.9
2019-03-08T02:44:03.538Z,4.9
2019-03-08T02:45:03.856Z,4.9
2019-03-08T02:46:03.224Z,4.8
2019-03-08T02:47:02.803Z,4.8
2019-03-08T02:48:03.185Z,4.8
2019-03-08T02:49:03.439Z,4.8
2019-03-08T02:50:03.405Z,4.8
2019-03-08T02:51:03.281Z,4.8
2019-03-08T02:52:03.553Z,4.9
2019-03-08T02:53:03.798Z,4.8
2019-03-08T02:54:03.340Z,4.9
2019-03-08T02:55:03.484Z,4.9
2019-03-08T02:56:03.031Z,4.9
2019-03-08T02:57:03.206Z,4.9
2019-03-08T02:58:03.049Z,4.9
2019-03-08T02:59:03.121Z,4.9
2019-03-08T03:00:03.134Z,4.9
2019-03-08T03:01:03.401Z,5
2019-03-08T03:02:02.983Z,5.1
2019-03-08T03:03:03.181Z,5.1
2019-03-08T03:04:02.832Z,5.2
2019-03-08T03:05:02.851Z,5.3
2019-03-08T03:06:02.809Z,5.3
2019-03-08T03:07:02.918Z,5.3
2019-03-08T03:08:02.622Z,5.3
2019-03-08T03:09:03.203Z,5.3
2019-03-08T03:10:03.517Z,5.3
2019-03-08T03:11:03.542Z,5.3
2019-03-08T03:12:03.557Z,5.3
2019-03-08T03:13:03.511Z,5.3
2019-03-08T03:14:03.630Z,5.3
2019-03-08T03:15:03.517Z,5.3
2019-03-08T03:16:03.479Z,5.4
2019-03-08T03:17:03.659Z,5.4
2019-03-08T03:18:03.577Z,5.4
2019-03-08T03:19:03.228Z,5.4
2019-03-08T03:20:03.534Z,5.4
2019-03-08T03:21:02.941Z,5.4
2019-03-08T03:22:03.087Z,5.4
2019-03-08T03:23:03.193Z,5.4
2019-03-08T03:24:03.001Z,5.4
2019-03-08T03:25:03.714Z,5.4
2019-03-08T03:26:02.816Z,5.4
2019-03-08T03:27:03.012Z,5.4
2019-03-08T03:28:02.846Z,5.4
2019-03-08T03:29:03.150Z,5.4
2019-03-08T03:30:03.186Z,5.4
2019-03-08T03:31:03.224Z,5.4
2019-03-08T03:32:02.864Z,5.4
2019-03-08T03:33:03.452Z,5.4
2019-03-08T03:34:03.016Z,5.4
2019-03-08T03:35:03.603Z,5.4
2019-03-08T03:36:02.835Z,5.4
2019-03-08T03:37:03.818Z,5.4
2019-03-08T03:38:03.635Z,5.4
2019-03-08T03:39:03.722Z,5.4
2019-03-08T03:40:02.935Z,5.3
2019-03-08T03:41:03.457Z,5.3
2019-03-08T03:42:02.969Z,5.3
2019-03-08T03:43:02.665Z,5.3
2019-03-08T03:44:03.523Z,5.4
2019-03-08T03:45:03.781Z,5.4
2019-03-08T03:46:03.603Z,5.4
2019-03-08T03:47:03.678Z,5.4
2019-03-08T03:48:03.482Z,5.4
2019-03-08T03:49:03.869Z,5.4
2019-03-08T03:50:03.594Z,5.4
2019-03-08T03:51:03.378Z,5.4
2019-03-08T03:52:03.213Z,5.4
2019-03-08T03:53:03.122Z,5.4
2019-03-08T03:54:03.293Z,5.4
2019-03-08T03:55:03.192Z,5.4
2019-03-08T03:56:03.292Z,5.4
2019-03-08T03:57:03.460Z,5.4
2019-03-08T03:58:02.837Z,5.4
2019-03-08T03:59:02.855Z,5.3
2019-03-08T04:00:03.319Z,5.3
2019-03-08T04:01:02.962Z,5.3
2019-03-08T04:02:02.824Z,5.2
2019-03-08T04:03:03.204Z,5.2
2019-03-08T04:04:03.289Z,5.2
2019-03-08T04:05:03.643Z,5.2
2019-03-08T04:06:03.157Z,5.1
2019-03-08T04:07:02.866Z,5.1
2019-03-08T04:08:02.955Z,5.1
2019-03-08T04:09:02.927Z,5
2019-03-08T04:10:02.970Z,5
2019-03-08T04:11:02.913Z,4.9
2019-03-08T04:12:03.223Z,4.9
2019-03-08T04:13:03.123Z,4.9
2019-03-08T04:14:02.855Z,4.9
2019-03-08T04:15:02.969Z,4.8
2019-03-08T04:16:03.732Z,4.8
2019-03-08T04:17:02.600Z,4.8
2019-03-08T04:18:03.661Z,4.8
2019-03-08T04:19:03.722Z,4.8
2019-03-08T04:20:03.633Z,4.8
2019-03-08T04:21:03.948Z,4.8
2019-03-08T04:22:03.654Z,4.8
2019-03-08T04:23:03.477Z,4.8
2019-03-08T04:24:03.742Z,4.8
2019-03-08T04:25:03.675Z,4.8
2019-03-08T04:26:03.533Z,4.8
2019-03-08T04:27:03.376Z,4.8
2019-03-08T04:28:03.297Z,4.9
2019-03-08T04:29:03.680Z,4.9
2019-03-08T04:30:03.321Z,4.9
2019-03-08T04:31:03.299Z,4.9
2019-03-08T04:32:03.282Z,4.9
2019-03-08T04:33:03.219Z,4.9
2019-03-08T04:34:04.231Z,4.9
2019-03-08T04:35:03.299Z,4.9
2019-03-08T04:36:03.099Z,4.9
2019-03-08T04:37:03.455Z,4.9
2019-03-08T04:38:03.188Z,4.9
2019-03-08T04:39:03.273Z,4.9
2019-03-08T04:40:03.874Z,4.9
2019-03-08T04:41:02.638Z,5
2019-03-08T04:42:02.715Z,5
2019-03-08T04:43:03.109Z,5
2019-03-08T04:44:03.722Z,5
2019-03-08T04:45:03.517Z,5.1
2019-03-08T04:46:03.869Z,5
2019-03-08T04:47:03.542Z,5.1
2019-03-08T04:48:03.535Z,5
2019-03-08T04:49:03.358Z,5.1
2019-03-08T04:50:03.460Z,5
2019-03-08T04:51:03.505Z,5
2019-03-08T04:52:03.473Z,5
2019-03-08T04:53:03.740Z,5
2019-03-08T04:54:03.550Z,4.9
2019-03-08T04:55:03.474Z,4.9
2019-03-08T04:56:03.607Z,4.9
2019-03-08T04:57:03.241Z,4.8
2019-03-08T04:58:03.240Z,4.8
2019-03-08T04:59:03.351Z,4.7
2019-03-08T05:00:03.365Z,4.7
2019-03-08T05:01:03.369Z,4.7
2019-03-08T05:02:03.202Z,4.6
2019-03-08T05:03:03.149Z,4.6
2019-03-08T05:04:02.976Z,4.6
2019-03-08T05:05:03.108Z,4.7
2019-03-08T05:06:02.996Z,4.6
2019-03-08T05:07:03.163Z,4.7
2019-03-08T05:08:02.824Z,4.6
2019-03-08T05:09:03.216Z,4.6
2019-03-08T05:10:02.985Z,4.6
2019-03-08T05:11:03.555Z,4.6
2019-03-08T05:12:02.899Z,4.6
2019-03-08T05:13:03.554Z,4.7
2019-03-08T05:14:03.587Z,4.7
2019-03-08T05:15:03.585Z,4.7
2019-03-08T05:16:03.795Z,4.7
2019-03-08T05:17:03.998Z,4.7
2019-03-08T05:18:03.297Z,4.8
2019-03-08T05:19:03.604Z,4.8
2019-03-08T05:20:03.536Z,4.8
2019-03-08T05:21:03.105Z,4.8
2019-03-08T05:22:03.622Z,4.9
2019-03-08T05:23:03.561Z,4.9
2019-03-08T05:24:03.051Z,4.9
2019-03-08T05:25:03.749Z,5
2019-03-08T05:26:03.401Z,5
2019-03-08T05:27:03.651Z,5.1
2019-03-08T05:28:05.136Z,5.1
2019-03-08T05:29:03.409Z,5.1
2019-03-08T05:30:03.550Z,5.1
2019-03-08T05:31:03.097Z,5.1
2019-03-08T05:32:03.239Z,5.1
2019-03-08T05:33:03.888Z,5
2019-03-08T05:34:03.064Z,5.1
2019-03-08T05:35:03.022Z,5.1
2019-03-08T05:36:03.233Z,5.1
2019-03-08T05:37:02.890Z,5.1
2019-03-08T05:38:03.295Z,5.1
2019-03-08T05:39:03.129Z,5.1
2019-03-08T05:40:03.170Z,5.1
2019-03-08T05:41:04.195Z,5
2019-03-08T05:42:02.768Z,5
2019-03-08T05:43:04.298Z,5.1
2019-03-08T05:44:03.632Z,5.1
2019-03-08T05:45:03.549Z,5.1
2019-03-08T05:46:02.556Z,5.1
2019-03-08T05:47:02.903Z,5.1
2019-03-08T05:48:03.197Z,5.1
2019-03-08T05:49:03.862Z,5.1
2019-03-08T05:50:02.865Z,5.2
2019-03-08T05:51:03.014Z,5.2
2019-03-08T05:52:02.802Z,5.2
2019-03-08T05:53:03.697Z,5.3
2019-03-08T05:54:03.768Z,5.3
2019-03-08T05:55:03.738Z,5.3
2019-03-08T05:56:03.495Z,5.2
2019-03-08T05:57:03.663Z,5.2
2019-03-08T05:58:03.346Z,5.2
2019-03-08T05:59:03.501Z,5.2
2019-03-08T06:00:03.471Z,5.3
2019-03-08T06:01:03.277Z,5.2
2019-03-08T06:02:03.673Z,5.3
2019-03-08T06:03:03.759Z,5.2
2019-03-08T06:04:03.806Z,5.3
2019-03-08T06:05:02.061Z,5.2
2019-03-08T06:06:02.943Z,5.2
2019-03-08T06:07:03.800Z,5.2
2019-03-08T06:08:03.579Z,5.2
2019-03-08T06:09:03.119Z,5.2
2019-03-08T06:10:03.327Z,5.2
2019-03-08T06:11:03.350Z,5.2
2019-03-08T06:12:03.459Z,5.2
2019-03-08T06:13:02.918Z,5.3
2019-03-08T06:14:03.177Z,5.3
2019-03-08T06:15:03.056Z,5.3
2019-03-08T06:16:03.140Z,5.3
2019-03-08T06:17:02.943Z,5.3
2019-03-08T06:18:03.047Z,5.4
2019-03-08T06:19:02.972Z,5.4
2019-03-08T06:20:04.009Z,5.4
2019-03-08T06:21:02.982Z,5.5
2019-03-08T06:22:02.776Z,5.6
2019-03-08T06:23:04.958Z,5.6
2019-03-08T06:24:03.697Z,5.7
2019-03-08T06:25:03.743Z,5.7
2019-03-08T06:26:02.827Z,5.7
2019-03-08T06:27:03.007Z,5.8
2019-03-08T06:28:02.893Z,5.8
2019-03-08T06:29:03.754Z,5.9
2019-03-08T06:30:03.570Z,5.9
2019-03-08T06:31:03.542Z,5.9
2019-03-08T06:32:03.465Z,6.1
2019-03-08T06:33:03.458Z,6.1
2019-03-08T06:34:03.248Z,6.2
2019-03-08T06:35:03.548Z,6.4
2019-03-08T06:36:03.365Z,6.3
2019-03-08T06:37:03.197Z,6.4
2019-03-08T06:38:03.348Z,6.4
2019-03-08T06:39:03.228Z,6.4
2019-03-08T06:40:03.386Z,6.4
2019-03-08T06:41:03.271Z,6.4
2019-03-08T06:42:03.218Z,6.4
2019-03-08T06:43:03.487Z,6.5
2019-03-08T06:44:02.884Z,6.4
2019-03-08T06:45:03.097Z,6.4
2019-03-08T06:46:03.224Z,6.4
2019-03-08T06:47:02.895Z,6.3
2019-03-08T06:48:02.902Z,6.3
2019-03-08T06:49:03.371Z,6.4
2019-03-08T06:50:02.920Z,6.4
2019-03-08T06:51:03.904Z,6.5
2019-03-08T06:52:03.710Z,6.5
2019-03-08T06:53:02.764Z,6.6
2019-03-08T06:54:03.403Z,6.6
2019-03-08T06:55:02.802Z,6.6
2019-03-08T06:56:02.818Z,6.6
2019-03-08T06:57:03.784Z,6.5
2019-03-08T06:58:03.746Z,6.5
2019-03-08T06:59:03.182Z,6.5
2019-03-08T07:00:03.202Z,6.4
2019-03-08T07:01:03.448Z,6.4
2019-03-08T07:02:03.606Z,6.4
2019-03-08T07:03:03.165Z,6.6
2019-03-08T07:04:03.336Z,6.6
2019-03-08T07:05:03.541Z,6.6
2019-03-08T07:06:03.375Z,6.6
2019-03-08T07:07:03.869Z,6.7
2019-03-08T07:08:03.153Z,6.8
2019-03-08T07:09:03.154Z,6.8
2019-03-08T07:10:03.189Z,6.9
2019-03-08T07:11:03.368Z,6.9
2019-03-08T07:12:03.338Z,6.9
2019-03-08T07:13:04.189Z,7.1
2019-03-08T07:14:03.262Z,7
2019-03-08T07:15:03.653Z,7
2019-03-08T07:16:14.964Z,7
2019-03-08T07:17:03.117Z,7
2019-03-08T07:18:13.283Z,7
2019-03-08T07:19:03.038Z,7.1
2019-03-08T07:20:03.486Z,7.1
2019-03-08T07:21:03.542Z,7.1
2019-03-08T07:22:02.848Z,7.2
2019-03-08T07:23:03.764Z,7.2
2019-03-08T07:24:02.821Z,7.3
2019-03-08T07:25:03.302Z,7.3
2019-03-08T07:26:03.085Z,7.3
2019-03-08T07:27:02.998Z,7.2
2019-03-08T07:28:03.368Z,7.1
2019-03-08T07:29:03.135Z,7.1
2019-03-08T07:30:03.299Z,7
2019-03-08T07:31:02.944Z,7.1
2019-03-08T07:32:02.832Z,7
2019-03-08T07:33:03.025Z,7.1
2019-03-08T07:34:02.827Z,7
2019-03-08T07:35:03.259Z,7
2019-03-08T07:36:02.662Z,7
2019-03-08T07:37:02.862Z,7.1
2019-03-08T07:38:03.659Z,7.1
2019-03-08T07:39:02.766Z,7.1
2019-03-08T07:40:03.895Z,7.1
2019-03-08T07:41:03.440Z,7.1
2019-03-08T07:42:03.836Z,7.2
2019-03-08T07:43:03.270Z,7.4
2019-03-08T07:44:03.658Z,7.5
2019-03-08T07:45:03.523Z,7.5
2019-03-08T07:46:03.325Z,7.5
2019-03-08T07:47:03.243Z,7.6
2019-03-08T07:48:03.446Z,7.5
2019-03-08T07:49:03.407Z,7.6
2019-03-08T07:50:03.424Z,7.6
2019-03-08T07:51:03.494Z,7.8
2019-03-08T07:52:03.219Z,7.8
2019-03-08T07:53:03.172Z,7.9
2019-03-08T07:54:03.697Z,7.9
2019-03-08T07:55:03.424Z,7.9
2019-03-08T07:56:03.233Z,8
2019-03-08T07:57:03.339Z,8
2019-03-08T07:58:03.191Z,8.1
2019-03-08T07:59:03.431Z,8.1
2019-03-08T08:00:03.092Z,8.1
2019-03-08T08:01:03.324Z,8.1
2019-03-08T08:02:03.152Z,8.1
2019-03-08T08:03:05.359Z,8.2
2019-03-08T08:04:03.015Z,8.3
2019-03-08T08:05:03.535Z,8.3
2019-03-08T08:06:02.899Z,8.4
2019-03-08T08:07:03.207Z,8.4
2019-03-08T08:08:02.682Z,8.4
2019-03-08T08:09:02.953Z,8.4
2019-03-08T08:10:02.948Z,8.4
2019-03-08T08:11:03.365Z,8.5
2019-03-08T08:12:02.886Z,8.6
2019-03-08T08:13:03.736Z,8.6
2019-03-08T08:14:02.825Z,8.6
2019-03-08T08:15:02.953Z,8.6
2019-03-08T08:16:03.674Z,8.7
2019-03-08T08:17:03.420Z,8.7
2019-03-08T08:18:03.798Z,8.7
2019-03-08T08:19:04.030Z,8.7
2019-03-08T08:20:02.885Z,8.6
2019-03-08T08:21:03.470Z,8.5
2019-03-08T08:22:03.328Z,8.5
2019-03-08T08:23:03.219Z,8.5
2019-03-08T08:24:03.380Z,8.5
2019-03-08T08:25:03.562Z,8.5
2019-03-08T08:26:03.756Z,8.5
2019-03-08T08:27:03.789Z,8.4
2019-03-08T08:28:03.072Z,8.4
2019-03-08T08:29:03.264Z,8.4
2019-03-08T08:30:03.685Z,8.3
2019-03-08T08:31:03.412Z,8.3
2019-03-08T08:32:03.371Z,8.3
2019-03-08T08:33:03.357Z,8.3
2019-03-08T08:34:03.352Z,8.3
2019-03-08T08:35:03.468Z,8.3
2019-03-08T08:36:03.219Z,8.3
2019-03-08T08:37:02.824Z,8.3
2019-03-08T08:38:03.453Z,8.3
2019-03-08T08:39:03.293Z,8.3
2019-03-08T08:40:03.130Z,8.4
2019-03-08T08:41:03.241Z,8.4
2019-03-08T08:42:03.294Z,8.4
2019-03-08T08:43:03.622Z,8.4
2019-03-08T08:44:03.255Z,8.4
2019-03-08T08:45:03.057Z,8.5
2019-03-08T08:46:03.311Z,8.6
2019-03-08T08:47:03.115Z,8.6
2019-03-08T08:48:03.039Z,8.6
2019-03-08T08:49:02.882Z,8.6
2019-03-08T08:50:02.878Z,8.7
2019-03-08T08:51:03.377Z,8.8
2019-03-08T08:52:03.163Z,8.8
2019-03-08T08:53:03.085Z,8.8
2019-03-08T08:54:02.814Z,8.8
2019-03-08T08:55:03.054Z,8.8
2019-03-08T08:56:03.891Z,8.8
2019-03-08T08:57:02.801Z,8.8
2019-03-08T08:58:02.769Z,8.8
2019-03-08T08:59:03.576Z,8.9
2019-03-08T09:00:02.912Z,8.9
2019-03-08T09:01:02.546Z,8.9
2019-03-08T09:02:02.995Z,9.1
2019-03-08T09:03:02.918Z,9.1
2019-03-08T09:04:02.939Z,9
2019-03-08T09:05:03.647Z,9.1
2019-03-08T09:06:02.708Z,9.1
2019-03-08T09:07:03.954Z,9.1
2019-03-08T09:08:02.693Z,9.2
2019-03-08T09:09:03.669Z,9.3
2019-03-08T09:10:03.630Z,9.3
2019-03-08T09:11:03.204Z,9.3
2019-03-08T09:12:03.438Z,9.3
2019-03-08T09:13:03.390Z,9.4
2019-03-08T09:14:03.700Z,9.4
2019-03-08T09:15:03.879Z,9.3
2019-03-08T09:16:03.075Z,9.2
2019-03-08T09:17:03.536Z,9.2
2019-03-08T09:18:03.217Z,9.2
2019-03-08T09:19:03.151Z,9.3
2019-03-08T09:20:02.912Z,9.4
2019-03-08T09:21:03.581Z,9.3
2019-03-08T09:22:03.120Z,9.4
2019-03-08T09:23:03.717Z,9.4
2019-03-08T09:24:03.349Z,9.4
2019-03-08T09:25:03.241Z,9.4
2019-03-08T09:26:02.859Z,9.3
2019-03-08T09:27:03.121Z,9.3
2019-03-08T09:28:03.267Z,9.3
2019-03-08T09:29:03.074Z,9.4
2019-03-08T09:30:03.266Z,9.4
2019-03-08T09:31:03.450Z,9.4
2019-03-08T09:32:03.216Z,9.5
2019-03-08T09:33:03.585Z,9.5
2019-03-08T09:34:02.917Z,9.6
2019-03-08T09:35:02.930Z,9.6
2019-03-08T09:36:02.910Z,9.6
2019-03-08T09:37:02.958Z,9.5
2019-03-08T09:38:03.405Z,9.5
2019-03-08T09:39:03.647Z,9.5
2019-03-08T09:40:03.314Z,9.4
2019-03-08T09:41:02.935Z,9.4
2019-03-08T09:42:02.859Z,9.4
2019-03-08T09:43:03.567Z,9.4
2019-03-08T09:44:02.914Z,9.4
2019-03-08T09:45:03.022Z,9.4
2019-03-08T09:46:03.507Z,9.4
2019-03-08T09:47:04.278Z,9.5
2019-03-08T09:48:03.654Z,9.6
2019-03-08T09:49:02.731Z,9.6
2019-03-08T09:50:03.490Z,9.6
2019-03-08T09:51:03.574Z,9.6
2019-03-08T09:52:03.499Z,9.8
2019-03-08T09:53:03.524Z,9.8
2019-03-08T09:54:03.360Z,9.9
2019-03-08T09:55:04.127Z,9.9
2019-03-08T09:56:02.837Z,9.9
2019-03-08T09:57:03.471Z,9.8
2019-03-08T09:58:03.367Z,9.9
2019-03-08T09:59:02.922Z,10
2019-03-08T10:00:03.706Z,9.9
2019-03-08T10:01:03.346Z,10
2019-03-08T10:02:03.347Z,9.9
2019-03-08T10:03:04.220Z,9.8
2019-03-08T10:04:03.461Z,9.8
2019-03-08T10:05:03.360Z,10.3
2019-03-08T10:06:03.337Z,10.6
2019-03-08T10:07:03.042Z,10.6
2019-03-08T10:08:03.436Z,10.8
2019-03-08T10:09:02.866Z,10.6
2019-03-08T10:10:03.463Z,10.7
2019-03-08T10:11:03.659Z,11.1
2019-03-08T10:12:03.080Z,11.1
2019-03-08T10:13:03.007Z,10.9
2019-03-08T10:14:02.921Z,11.1
2019-03-08T10:15:03.202Z,11.3
2019-03-08T10:16:03.037Z,11.1
2019-03-08T10:17:03.197Z,11.1
2019-03-08T10:18:03.548Z,11.3
2019-03-08T10:19:03.456Z,11.6
2019-03-08T10:20:02.865Z,12.1
2019-03-08T10:21:03.529Z,11.8
2019-03-08T10:22:03.712Z,11.6
2019-03-08T10:23:02.637Z,11.3
2019-03-08T10:24:03.831Z,10.8
2019-03-08T10:25:03.672Z,10.8
2019-03-08T10:26:03.642Z,10.8
2019-03-08T10:27:03.348Z,10.6
2019-03-08T10:28:03.614Z,10.8
2019-03-08T10:29:03.912Z,10.9
2019-03-08T10:30:02.913Z,10.9
2019-03-08T10:31:03.662Z,10.8
2019-03-08T10:32:03.784Z,10.8
2019-03-08T10:33:03.408Z,10.6
2019-03-08T10:34:02.908Z,10.5
2019-03-08T10:35:04.179Z,10.3
2019-03-08T10:36:03.544Z,10.2
2019-03-08T10:37:03.523Z,10.2
2019-03-08T10:38:03.530Z,10.1
2019-03-08T10:39:03.663Z,10.1
2019-03-08T10:40:05.869Z,10.1
2019-03-08T10:41:03.489Z,10.2
2019-03-08T10:42:03.272Z,10.4
2019-03-08T10:43:04.031Z,10.5
2019-03-08T10:44:13.127Z,10.4
2019-03-08T10:45:03.333Z,10.3
2019-03-08T10:46:03.252Z,10.4
2019-03-08T10:47:03.433Z,10.6
2019-03-08T10:48:03.196Z,10.8
2019-03-08T10:49:03.891Z,10.9
2019-03-08T10:50:03.440Z,10.9
2019-03-08T10:51:03.756Z,10.9
2019-03-08T10:52:03.163Z,10.9
2019-03-08T10:53:03.444Z,10.9
2019-03-08T10:54:03.559Z,10.9
2019-03-08T10:55:03.332Z,10.9
2019-03-08T10:56:03.203Z,11.1
2019-03-08T10:57:03.327Z,11.1
2019-03-08T10:58:03.384Z,11.5
2019-03-08T10:59:03.628Z,11.8
2019-03-08T11:00:03.477Z,11.8
2019-03-08T11:01:03.345Z,11.7
2019-03-08T11:02:02.947Z,11.6
2019-03-08T11:03:03.086Z,11.8
2019-03-08T11:04:02.858Z,12
2019-03-08T11:05:03.400Z,12.1
2019-03-08T11:06:03.330Z,12
2019-03-08T11:07:04.457Z,11.9
2019-03-08T11:08:03.647Z,12.4
2019-03-08T11:09:02.957Z,12.6
2019-03-08T11:10:02.954Z,12.4
2019-03-08T11:11:06.901Z,12.4
2019-03-08T11:12:03.637Z,12.1
2019-03-08T11:13:02.766Z,11.6
2019-03-08T11:14:02.929Z,11.4
2019-03-08T11:15:03.855Z,11.2
2019-03-08T11:16:03.813Z,10.9
2019-03-08T11:17:02.979Z,10.9
2019-03-08T11:18:03.677Z,10.9
2019-03-08T11:19:09.246Z,10.8
2019-03-08T11:20:03.555Z,10.8
2019-03-08T11:21:03.399Z,11
2019-03-08T11:22:03.483Z,11.1
2019-03-08T11:23:03.676Z,11.3
2019-03-08T11:24:03.408Z,11.4
2019-03-08T11:25:08.894Z,11.9
2019-03-08T11:26:03.563Z,11.8
2019-03-08T11:27:05.540Z,11.7
2019-03-08T11:28:03.657Z,11.7
2019-03-08T11:29:03.316Z,11.7
2019-03-08T11:30:03.118Z,11.4
2019-03-08T11:31:03.847Z,11.3
2019-03-08T11:32:03.304Z,11.2
2019-03-08T11:33:03.332Z,11
2019-03-08T11:34:03.189Z,10.9
2019-03-08T11:35:03.190Z,10.8
2019-03-08T11:36:03.232Z,10.8
2019-03-08T11:37:04.462Z,10.8
2019-03-08T11:38:03.166Z,10.8
2019-03-08T11:39:03.855Z,10.8
2019-03-08T11:40:03.188Z,10.8
2019-03-08T11:41:03.123Z,10.7
2019-03-08T11:42:03.030Z,10.7
2019-03-08T11:43:02.844Z,10.7
2019-03-08T11:44:03.053Z,10.7
2019-03-08T11:45:03.188Z,10.7
2019-03-08T11:46:02.820Z,10.6
2019-03-08T11:47:04.311Z,10.6
2019-03-08T11:48:02.718Z,10.6
2019-03-08T11:49:02.953Z,10.6
2019-03-08T11:50:03.459Z,10.7
2019-03-08T11:51:03.538Z,10.8
2019-03-08T11:52:03.645Z,10.9
2019-03-08T11:53:03.451Z,10.9
2019-03-08T11:54:03.580Z,10.8
2019-03-08T11:55:03.749Z,10.8
2019-03-08T11:56:02.981Z,10.9
2019-03-08T11:57:02.874Z,11.1
2019-03-08T11:58:03.600Z,11.1
2019-03-08T11:59:02.633Z,10.9
2019-03-08T12:00:03.616Z,11
2019-03-08T12:01:02.774Z,11
2019-03-08T12:02:05.846Z,11.1
2019-03-08T12:03:02.976Z,11.3
2019-03-08T12:04:03.542Z,11.5
2019-03-08T12:05:02.664Z,11.8
2019-03-08T12:06:03.451Z,11.9
2019-03-08T12:07:03.622Z,12.2
2019-03-08T12:08:03.520Z,12.2
2019-03-08T12:09:03.435Z,12.4
2019-03-08T12:10:03.652Z,12.4
2019-03-08T12:11:03.588Z,12.1
2019-03-08T12:12:03.602Z,11.8
2019-03-08T12:13:03.622Z,11.6
2019-03-08T12:14:03.728Z,11.5
2019-03-08T12:15:03.415Z,11.2
2019-03-08T12:16:03.617Z,11.3
2019-03-08T12:17:03.312Z,11.3
2019-03-08T12:18:03.326Z,11.3
2019-03-08T12:19:03.492Z,11.1
2019-03-08T12:20:03.520Z,11.1
2019-03-08T12:21:03.137Z,11.1
2019-03-08T12:22:03.299Z,11.4
2019-03-08T12:23:03.223Z,11.4
2019-03-08T12:24:03.353Z,11.4
2019-03-08T12:25:03.177Z,11.4
2019-03-08T12:26:02.948Z,11.2
2019-03-08T12:27:04.869Z,11.4
2019-03-08T12:28:03.431Z,11.9
2019-03-08T12:29:03.823Z,11.9
2019-03-08T12:30:04.708Z,11.8
2019-03-08T12:31:03.152Z,11.7
2019-03-08T12:32:02.848Z,11.4
2019-03-08T12:33:02.706Z,11.4
2019-03-08T12:34:03.758Z,11.4
2019-03-08T12:35:02.945Z,11.3
2019-03-08T12:36:04.830Z,11.3
2019-03-08T12:37:02.872Z,11.2
2019-03-08T12:38:03.225Z,11.1
2019-03-08T12:39:02.870Z,11.3
2019-03-08T12:40:03.015Z,11.3
2019-03-08T12:41:03.814Z,11.3
2019-03-08T12:42:02.841Z,11.2
2019-03-08T12:43:08.576Z,11.1
2019-03-08T12:44:04.082Z,11.1
2019-03-08T12:45:03.694Z,11.3
2019-03-08T12:46:03.601Z,11.4
2019-03-08T12:47:03.526Z,11.3
2019-03-08T12:48:03.638Z,11.2
2019-03-08T12:49:03.600Z,11
2019-03-08T12:50:03.697Z,10.9
2019-03-08T12:51:03.791Z,10.9
2019-03-08T12:52:03.872Z,10.9
2019-03-08T12:53:03.386Z,10.9
2019-03-08T12:54:03.331Z,10.9
2019-03-08T12:55:03.457Z,11.1
2019-03-08T12:56:03.282Z,11.6
2019-03-08T12:57:03.403Z,11.9
2019-03-08T12:58:03.347Z,11.7
2019-03-08T12:59:03.432Z,11.6
2019-03-08T13:00:03.739Z,11.4
2019-03-08T13:01:03.398Z,11.4
2019-03-08T13:02:03.542Z,11.3
2019-03-08T13:03:03.635Z,11.3
2019-03-08T13:04:03.124Z,11.4
2019-03-08T13:05:03.363Z,11.5
2019-03-08T13:06:03.152Z,11.4
2019-03-08T13:07:03.239Z,11.3
2019-03-08T13:08:03.401Z,11.3
2019-03-08T13:09:03.623Z,11.3
2019-03-08T13:10:03.484Z,11.3
2019-03-08T13:11:03.338Z,11.2
2019-03-08T13:12:03.263Z,11.2
2019-03-08T13:13:03.124Z,11.3
2019-03-08T13:14:03.114Z,11.4
2019-03-08T13:15:03.123Z,11.4
2019-03-08T13:16:03.076Z,11.6
2019-03-08T13:17:03.083Z,11.7
2019-03-08T13:18:03.018Z,11.6
2019-03-08T13:19:02.916Z,11.6
2019-03-08T13:20:02.193Z,11.5
2019-03-08T13:21:03.136Z,11.4
2019-03-08T13:22:03.679Z,11.4
2019-03-08T13:23:02.849Z,11.4
2019-03-08T13:24:02.977Z,11.3
2019-03-08T13:25:03.006Z,11.3
2019-03-08T13:26:03.255Z,11.2
2019-03-08T13:27:03.779Z,11.3
2019-03-08T13:28:03.509Z,11.2
2019-03-08T13:29:03.634Z,11.1
2019-03-08T13:30:03.759Z,11
2019-03-08T13:31:03.696Z,11
2019-03-08T13:32:03.829Z,11.1
2019-03-08T13:33:03.625Z,11
2019-03-08T13:34:03.609Z,10.9
2019-03-08T13:35:03.704Z,10.9
2019-03-08T13:36:03.577Z,10.8
2019-03-08T13:37:03.310Z,10.7
2019-03-08T13:38:03.402Z,10.6
2019-03-08T13:39:03.185Z,10.5
2019-03-08T13:40:03.945Z,10.4
2019-03-08T13:41:03.035Z,10.4
2019-03-08T13:42:03.449Z,10.4